Main page
METAR-TAF:

METAR-TAF

Airports :

Avignon – Provence Airport

Avignon, France

latitude: 43-54-26N, longitude: 004-54-07E, elevation: 38 m

Current weather observation

The report was made 3 hours and 17 minutes ago, at 16:00 UTC
Wind 8 kt from the South
Temperature 21°C
Humidity 46%
Pressure 1019 hPa
Visibility 10 km or more
no clouds below 1500 m and no cumulonimbus

METAR: LFMV 181600Z AUTO 19008KT CAVOK 21/09 Q1019 NOSIG

Time: 21:17 (19:17 UTC)

Forecast

The report was made 5 hours and 17 minutes ago, at 14:00 UTC
Forecast valid from 18 at 15 UTC to 19 at 15 UTC
Wind 5 kt from variable directions
Visibility 10 km or more
no clouds below 1500 m and no cumulonimbus

TAF: LFMV 181400Z 1815/1915 VRB05KT CAVOK

Weather observations and forecasts of more than 4000 airports (METAR and TAF reports).

The available stations are represented by yellow and red dots on the map.

Hover mouse over dot to see the name of the station.

Then click to see weather observations and forecasts.

To change the map : click on the green buttons with a black cross to zoom in, on the green button with a dash to zoom out, or on the green arrows for adjacent maps.


METAR-TAF: